createdAt,value
2019-05-09T00:01:57.987Z,73.83
2019-05-09T00:06:59.494Z,73.94
2019-05-09T00:12:01.079Z,74.03
2019-05-09T00:17:03.688Z,74.10
2019-05-09T00:22:05.422Z,74.11
2019-05-09T00:27:06.869Z,74.10
2019-05-09T00:32:08.360Z,74.22
2019-05-09T00:37:09.837Z,74.37
2019-05-09T00:42:13.528Z,74.42
2019-05-09T00:47:14.815Z,74.24
2019-05-09T00:52:16.293Z,74.35
2019-05-09T00:57:17.821Z,74.43
2019-05-09T01:02:19.329Z,74.38
2019-05-09T01:07:20.745Z,74.34
2019-05-09T01:12:23.531Z,74.80
2019-05-09T01:17:25.178Z,74.82
2019-05-09T01:22:26.669Z,74.70
2019-05-09T01:27:28.212Z,74.81
2019-05-09T01:32:29.733Z,75.05
2019-05-09T01:37:31.262Z,74.99
2019-05-09T01:42:33.778Z,75.10
2019-05-09T01:47:35.433Z,75.36
2019-05-09T01:52:36.991Z,75.00
2019-05-09T01:57:38.461Z,74.90
2019-05-09T02:02:39.974Z,75.47
2019-05-09T02:07:43.281Z,75.33
2019-05-09T02:12:44.869Z,75.39
2019-05-09T02:17:57.775Z,75.31
2019-05-09T02:22:49.615Z,75.35
2019-05-09T02:27:51.134Z,75.37
2019-05-09T02:32:54.687Z,75.56
2019-05-09T02:37:58.720Z,75.67
2019-05-09T02:42:59.503Z,75.78
2019-05-09T02:48:01.133Z,75.54
2019-05-09T02:53:02.528Z,75.73
2019-05-09T02:58:04.054Z,75.57
2019-05-09T03:03:08.814Z,75.94
2019-05-09T03:08:09.709Z,75.28
2019-05-09T03:13:11.507Z,74.94
2019-05-09T03:18:13.020Z,74.91
2019-05-09T03:23:14.461Z,74.81
2019-05-09T03:28:18.446Z,75.14
2019-05-09T03:33:20.337Z,74.79
2019-05-09T03:38:22.017Z,74.75
2019-05-09T03:43:23.567Z,75.13
2019-05-09T03:48:25.069Z,75.28
2019-05-09T03:53:27.606Z,75.40
2019-05-09T03:58:29.055Z,75.80
2019-05-09T04:03:30.466Z,75.80
2019-05-09T04:08:31.965Z,75.80
2019-05-09T04:13:33.453Z,76.00
2019-05-09T04:18:34.961Z,75.91
2019-05-09T04:23:37.831Z,75.89
2019-05-09T04:28:40.027Z,75.54
2019-05-09T04:33:41.583Z,75.03
2019-05-09T04:38:43.145Z,74.48
2019-05-09T04:43:44.694Z,74.00
2019-05-09T04:48:47.583Z,73.59
2019-05-09T04:53:49.443Z,73.69
2019-05-09T04:58:50.911Z,73.92
2019-05-09T05:03:52.501Z,73.90
2019-05-09T05:08:54.085Z,74.27
2019-05-09T05:13:55.659Z,74.05
2019-05-09T05:18:58.545Z,74.48
2019-05-09T05:24:00.043Z,74.36
2019-05-09T05:29:01.594Z,74.37
2019-05-09T05:34:03.108Z,74.31
2019-05-09T05:39:07.535Z,74.29
2019-05-09T05:44:09.156Z,74.80
2019-05-09T05:49:10.691Z,74.15
2019-05-09T05:54:12.228Z,74.07
2019-05-09T05:59:14.059Z,73.73
2019-05-09T06:04:18.306Z,73.81
2019-05-09T06:09:19.853Z,73.30
2019-05-09T06:14:21.389Z,73.21
2019-05-09T06:19:23.089Z,73.40
2019-05-09T06:24:24.653Z,73.54
2019-05-09T06:29:28.670Z,73.66
2019-05-09T06:34:29.560Z,73.91
2019-05-09T06:39:31.100Z,73.58
2019-05-09T06:44:32.631Z,73.46
2019-05-09T06:49:34.237Z,74.13
2019-05-09T06:54:35.813Z,74.22
2019-05-09T06:59:38.306Z,74.08
2019-05-09T07:04:39.671Z,74.04
2019-05-09T07:09:41.133Z,73.96
2019-05-09T07:14:42.620Z,73.80
2019-05-09T07:19:44.318Z,73.36
2019-05-09T07:24:48.008Z,73.06
2019-05-09T07:29:49.430Z,72.60
2019-05-09T07:34:51.278Z,72.80
2019-05-09T07:39:52.901Z,72.30
2019-05-09T07:44:54.579Z,72.09
2019-05-09T07:49:58.387Z,70.69
2019-05-09T07:54:59.861Z,70.43
2019-05-09T08:00:01.361Z,68.85
2019-05-09T08:05:02.928Z,68.46
2019-05-09T08:10:04.484Z,66.97
2019-05-09T08:15:13.339Z,66.88
2019-05-09T08:20:09.334Z,66.45
2019-05-09T08:25:10.896Z,65.10
2019-05-09T08:30:12.440Z,65.01
2019-05-09T08:35:13.871Z,63.40
2019-05-09T08:40:15.400Z,62.67
2019-05-09T08:45:25.271Z,61.70
2019-05-09T08:50:20.541Z,61.24
2019-05-09T08:55:22.063Z,60.85
2019-05-09T09:00:23.567Z,59.96
2019-05-09T09:05:25.097Z,59.44
2019-05-09T09:10:29.140Z,59.39
2019-05-09T09:15:55.724Z,58.96
2019-05-09T09:20:33.370Z,59.03
2019-05-09T09:25:34.867Z,58.77
2019-05-09T09:30:38.598Z,59.07
2019-05-09T09:35:39.941Z,60.55
2019-05-09T09:40:41.443Z,59.11
2019-05-09T09:45:42.879Z,58.18
2019-05-09T09:50:44.541Z,57.92
2019-05-09T09:55:47.617Z,58.46
2019-05-09T10:00:49.332Z,55.71
2019-05-09T10:05:50.926Z,56.06
2019-05-09T10:10:52.469Z,56.20
2019-05-09T10:15:54.023Z,54.47
2019-05-09T10:20:55.633Z,56.15
2019-05-09T10:25:58.193Z,53.45
2019-05-09T10:30:59.851Z,50.12
2019-05-09T10:36:04.470Z,51.48
2019-05-09T10:41:04.965Z,51.07
2019-05-09T10:46:08.355Z,50.08
2019-05-09T10:51:10.651Z,48.88
2019-05-09T10:56:12.439Z,49.31
2019-05-09T11:01:13.857Z,51.03
2019-05-09T11:06:18.019Z,49.93
2019-05-09T11:11:18.915Z,49.32
2019-05-09T11:16:20.389Z,50.28
2019-05-09T11:21:21.818Z,51.36
2019-05-09T11:26:24.299Z,51.01
2019-05-09T11:31:25.713Z,48.57
2019-05-09T11:36:27.357Z,48.08
2019-05-09T11:41:29.672Z,47.02
2019-05-09T11:46:31.952Z,47.32
2019-05-09T11:51:33.590Z,48.38
2019-05-09T11:56:35.305Z,48.42
2019-05-09T12:01:39.454Z,48.25
2019-05-09T12:06:40.274Z,49.03
2019-05-09T12:11:44.601Z,48.30
2019-05-09T12:16:47.820Z,48.40
2019-05-09T12:21:48.761Z,47.64
2019-05-09T12:26:50.419Z,48.81
2019-05-09T12:31:51.965Z,47.38
2019-05-09T12:36:53.837Z,49.66
2019-05-09T12:41:57.682Z,47.61
2019-05-09T12:46:58.802Z,47.49
2019-05-09T12:52:00.412Z,46.85
2019-05-09T12:57:01.912Z,46.32
2019-05-09T13:02:03.485Z,47.93
2019-05-09T13:07:04.965Z,45.74
2019-05-09T13:12:08.634Z,44.98
2019-05-09T13:17:09.754Z,46.02
2019-05-09T13:22:11.442Z,45.61
2019-05-09T13:27:12.987Z,45.36
2019-05-09T13:32:14.486Z,49.18
2019-05-09T13:37:18.616Z,49.51
2019-05-09T13:42:19.952Z,48.66
2019-05-09T13:47:21.682Z,46.50
2019-05-09T13:52:23.191Z,44.60
2019-05-09T13:57:24.759Z,47.12
2019-05-09T14:02:28.527Z,46.45
2019-05-09T14:07:29.678Z,47.44
2019-05-09T14:12:31.158Z,47.05
2019-05-09T14:17:45.977Z,46.85
2019-05-09T14:22:38.428Z,46.68
2019-05-09T14:27:39.524Z,46.44
2019-05-09T14:32:41.168Z,47.48
2019-05-09T14:37:42.763Z,47.14
2019-05-09T14:42:44.412Z,46.99
2019-05-09T14:47:45.949Z,47.13
2019-05-09T14:52:49.357Z,48.43
2019-05-09T14:57:50.962Z,47.16
2019-05-09T15:02:52.599Z,45.11
2019-05-09T15:07:54.254Z,43.50
2019-05-09T15:12:58.362Z,44.06
2019-05-09T15:17:59.254Z,47.29
2019-05-09T15:23:00.819Z,45.57
2019-05-09T15:28:02.319Z,43.10
2019-05-09T15:33:03.781Z,46.63
2019-05-09T15:38:05.209Z,45.87
2019-05-09T15:43:08.275Z,47.63
2019-05-09T15:48:09.917Z,46.30
2019-05-09T15:53:11.309Z,49.22
2019-05-09T15:58:13.073Z,48.66
2019-05-09T16:03:14.578Z,48.83
2019-05-09T16:08:18.574Z,49.80
2019-05-09T16:13:19.997Z,48.87
2019-05-09T16:18:21.460Z,48.65
2019-05-09T16:23:23.357Z,47.36
2019-05-09T16:28:25.133Z,48.92
2019-05-09T16:33:27.905Z,49.47
2019-05-09T16:38:42.176Z,51.99
2019-05-09T16:43:33.195Z,53.84
2019-05-09T16:48:34.957Z,54.22
2019-05-09T16:53:36.892Z,55.47
2019-05-09T16:58:38.495Z,55.34
2019-05-09T17:03:40.168Z,54.95
2019-05-09T17:08:41.816Z,55.69
2019-05-09T17:13:43.374Z,55.38
2019-05-09T17:18:44.979Z,55.30
2019-05-09T17:23:47.627Z,54.87
2019-05-09T17:28:49.339Z,55.01
2019-05-09T17:33:50.924Z,54.48
2019-05-09T17:38:52.455Z,54.43
2019-05-09T17:43:58.231Z,54.89
2019-05-09T17:49:00.181Z,55.75
2019-05-09T17:54:01.718Z,60.06
2019-05-09T17:59:03.257Z,63.52
2019-05-09T18:04:04.788Z,65.62
2019-05-09T18:09:08.438Z,67.54
2019-05-09T18:14:09.689Z,68.28
2019-05-09T18:19:11.408Z,68.67
2019-05-09T18:24:12.836Z,69.56
2019-05-09T18:29:14.368Z,68.84
2019-05-09T18:34:18.568Z,69.20
2019-05-09T18:39:19.948Z,68.96
2019-05-09T18:44:21.527Z,68.66
2019-05-09T18:49:23.086Z,68.94
2019-05-09T18:54:24.617Z,69.47
2019-05-09T18:59:26.147Z,69.57
2019-05-09T19:04:27.654Z,69.48
2019-05-09T19:09:29.201Z,69.67
2019-05-09T19:14:30.740Z,70.44
2019-05-09T19:19:32.213Z,71.22
2019-05-09T19:24:33.846Z,71.80
2019-05-09T19:29:35.575Z,72.33
2019-05-09T19:34:37.363Z,72.69
2019-05-09T19:39:39.553Z,74.69
2019-05-09T19:44:41.089Z,74.15
2019-05-09T19:49:42.632Z,74.02
2019-05-09T19:54:45.670Z,74.00
2019-05-09T19:59:47.416Z,74.21
2019-05-09T20:04:49.055Z,74.04
2019-05-09T20:09:50.636Z,73.82
2019-05-09T20:14:52.369Z,74.05
2019-05-09T20:19:54.090Z,73.97
2019-05-09T20:24:55.741Z,74.81
2019-05-09T20:29:57.654Z,75.15
2019-05-09T20:34:59.140Z,75.14
2019-05-09T20:40:00.675Z,75.27
2019-05-09T20:45:02.241Z,75.25
2019-05-09T20:50:03.689Z,75.09
2019-05-09T20:55:05.236Z,74.54
2019-05-09T21:00:06.717Z,74.54
2019-05-09T21:05:08.236Z,74.56
2019-05-09T21:10:09.849Z,74.77
2019-05-09T21:15:11.365Z,74.99
2019-05-09T21:20:12.929Z,75.09
2019-05-09T21:25:14.421Z,75.30
2019-05-09T21:30:15.947Z,75.35
2019-05-09T21:35:17.460Z,74.92
2019-05-09T21:40:19.152Z,74.60
2019-05-09T21:45:20.681Z,74.81
2019-05-09T21:50:22.212Z,75.00
2019-05-09T21:55:23.715Z,75.38
2019-05-09T22:00:27.631Z,75.07
2019-05-09T22:05:29.140Z,75.06
2019-05-09T22:10:30.634Z,75.37
2019-05-09T22:15:32.150Z,75.05
2019-05-09T22:20:33.679Z,75.05
2019-05-09T22:25:35.229Z,75.31
2019-05-09T22:30:36.599Z,74.70
2019-05-09T22:35:38.107Z,74.86
2019-05-09T22:40:39.644Z,74.79
2019-05-09T22:45:41.098Z,75.16
2019-05-09T22:50:42.654Z,75.21
2019-05-09T22:55:44.073Z,75.34
2019-05-09T23:00:45.509Z,75.30
2019-05-09T23:05:46.998Z,75.24
2019-05-09T23:10:48.522Z,75.09
2019-05-09T23:15:50.012Z,75.25
2019-05-09T23:20:51.562Z,75.58
2019-05-09T23:25:53.090Z,76.17
2019-05-09T23:30:54.592Z,76.19
2019-05-09T23:35:55.996Z,76.30
2019-05-09T23:40:57.417Z,76.26
2019-05-09T23:45:58.992Z,76.80
2019-05-09T23:51:00.429Z,77.07
2019-05-09T23:56:01.879Z,77.67
